createdAt,value
2023-01-03T00:00:37.443Z,100.00
2023-01-03T00:01:40.642Z,100.00
2023-01-03T00:02:42.698Z,100.00
2023-01-03T00:03:44.863Z,100.00
2023-01-03T00:04:49.650Z,100.00
2023-01-03T00:05:50.778Z,100.00
2023-01-03T00:06:53.698Z,100.00
2023-01-03T00:07:56.180Z,100.00
2023-01-03T00:09:00.206Z,100.00
2023-01-03T00:10:08.794Z,100.00
2023-01-03T00:11:17.202Z,100.00
2023-01-03T00:12:19.235Z,100.00
2023-01-03T00:13:23.146Z,100.00
2023-01-03T00:14:28.680Z,100.00
2023-01-03T00:15:36.416Z,100.00
2023-01-03T00:16:39.544Z,100.00
2023-01-03T00:17:42.632Z,100.00
2023-01-03T00:18:45.284Z,100.00
2023-01-03T00:19:47.290Z,100.00
2023-01-03T00:20:50.233Z,100.00
2023-01-03T00:21:53.716Z,100.00
2023-01-03T00:22:55.869Z,100.00
2023-01-03T00:23:57.819Z,100.00
2023-01-03T00:25:01.056Z,100.00
2023-01-03T00:26:14.239Z,100.00
2023-01-03T00:27:16.667Z,100.00
2023-01-03T00:28:18.720Z,100.00
2023-01-03T00:29:21.605Z,100.00
2023-01-03T00:30:23.882Z,100.00
2023-01-03T00:31:26.592Z,100.00
2023-01-03T00:32:28.781Z,100.00
2023-01-03T00:33:32.251Z,100.00
2023-01-03T00:34:35.403Z,100.00
2023-01-03T00:35:37.399Z,100.00
2023-01-03T00:36:40.229Z,100.00
2023-01-03T00:37:43.541Z,100.00
2023-01-03T00:38:45.915Z,100.00
2023-01-03T00:39:47.842Z,100.00
2023-01-03T00:40:50.047Z,100.00
2023-01-03T00:41:53.377Z,100.00
2023-01-03T00:42:55.266Z,100.00
2023-01-03T00:43:58.079Z,100.00
2023-01-03T00:45:00.140Z,100.00
2023-01-03T00:46:03.586Z,100.00
2023-01-03T00:47:05.654Z,100.00
2023-01-03T00:48:07.621Z,100.00
2023-01-03T00:49:10.379Z,100.00
2023-01-03T00:50:12.578Z,100.00
2023-01-03T00:51:18.100Z,100.00
2023-01-03T00:52:20.136Z,100.00
2023-01-03T00:53:22.942Z,100.00
2023-01-03T00:54:25.893Z,100.00
2023-01-03T00:55:27.969Z,100.00
2023-01-03T00:56:33.341Z,100.00
2023-01-03T00:57:35.397Z,100.00
2023-01-03T00:58:38.042Z,100.00
2023-01-03T00:59:39.984Z,100.00
2023-01-03T01:00:42.192Z,100.00
2023-01-03T01:01:52.386Z,100.00
2023-01-03T01:02:55.398Z,100.00
2023-01-03T01:05:30.051Z,100.00
2023-01-03T01:07:44.823Z,100.00
2023-01-03T01:08:48.823Z,100.00
2023-01-03T01:09:50.717Z,100.00
2023-01-03T01:10:52.709Z,100.00
2023-01-03T01:11:55.645Z,100.00
2023-01-03T01:12:57.559Z,100.00
2023-01-03T01:14:00.030Z,100.00
2023-01-03T01:15:01.921Z,100.00
2023-01-03T01:16:07.708Z,100.00
2023-01-03T01:17:10.120Z,100.00
2023-01-03T01:18:12.007Z,100.00
2023-01-03T01:19:15.515Z,100.00
2023-01-03T01:20:18.303Z,100.00
2023-01-03T01:21:23.977Z,100.00
2023-01-03T01:22:26.105Z,100.00
2023-01-03T01:23:27.971Z,100.00
2023-01-03T01:24:31.533Z,100.00
2023-01-03T01:25:34.033Z,100.00
2023-01-03T01:26:36.560Z,100.00
2023-01-03T01:27:38.488Z,100.00
2023-01-03T01:28:42.208Z,100.00
2023-01-03T01:29:44.383Z,100.00
2023-01-03T01:30:46.544Z,100.00
2023-01-03T01:31:49.109Z,100.00
2023-01-03T01:32:51.165Z,100.00
2023-01-03T01:33:55.640Z,100.00
2023-01-03T01:34:57.553Z,100.00
2023-01-03T01:36:05.097Z,100.00
2023-01-03T01:37:07.277Z,100.00
2023-01-03T01:38:09.324Z,100.00
2023-01-03T01:39:14.803Z,100.00
2023-01-03T01:40:18.440Z,100.00
2023-01-03T01:41:20.419Z,100.00
2023-01-03T01:42:24.981Z,100.00
2023-01-03T01:43:26.582Z,100.00
2023-01-03T01:45:00.240Z,100.00
2023-01-03T01:46:06.080Z,100.00
2023-01-03T01:47:23.665Z,100.00
2023-01-03T01:48:25.905Z,100.00
2023-01-03T01:49:27.807Z,100.00
2023-01-03T01:50:42.960Z,100.00
2023-01-03T01:51:45.559Z,100.00
2023-01-03T01:53:05.893Z,100.00
2023-01-03T01:54:09.099Z,100.00
2023-01-03T01:55:14.747Z,100.00
2023-01-03T01:56:24.497Z,100.00
2023-01-03T01:57:28.434Z,100.00
2023-01-03T01:58:36.391Z,100.00
2023-01-03T01:59:38.606Z,100.00
2023-01-03T02:00:42.934Z,100.00
2023-01-03T02:01:48.032Z,100.00
2023-01-03T02:02:52.942Z,100.00
2023-01-03T02:04:01.851Z,100.00
2023-01-03T02:05:07.886Z,100.00
2023-01-03T02:06:13.703Z,100.00
2023-01-03T02:07:18.276Z,100.00
2023-01-03T02:08:21.190Z,100.00
2023-01-03T02:09:26.167Z,100.00
2023-01-03T02:10:48.853Z,100.00
2023-01-03T02:11:54.531Z,100.00
2023-01-03T02:13:16.855Z,100.00
2023-01-03T02:14:46.961Z,100.00
2023-01-03T02:16:10.819Z,100.00
2023-01-03T02:17:34.632Z,100.00
2023-01-03T02:19:03.711Z,100.00
2023-01-03T02:20:21.703Z,100.00
2023-01-03T02:21:48.202Z,100.00
2023-01-03T02:22:54.096Z,100.00
2023-01-03T02:24:18.295Z,100.00
2023-01-03T02:25:30.037Z,100.00
2023-01-03T02:26:50.781Z,100.00
2023-01-03T02:28:28.901Z,100.00
2023-01-03T02:29:53.031Z,100.00
2023-01-03T02:31:11.526Z,100.00
2023-01-03T02:33:50.030Z,100.00
2023-01-03T02:35:20.214Z,100.00
2023-01-03T02:36:28.764Z,100.00
2023-01-03T02:37:34.539Z,100.00
2023-01-03T02:38:58.816Z,100.00
2023-01-03T02:40:04.617Z,100.00
2023-01-03T02:41:19.612Z,100.00
2023-01-03T02:42:26.223Z,100.00
2023-01-03T02:43:31.910Z,100.00
2023-01-03T02:44:37.622Z,100.00
2023-01-03T02:45:52.306Z,100.00
2023-01-03T02:47:02.433Z,100.00
2023-01-03T02:48:14.392Z,100.00
2023-01-03T02:49:26.607Z,100.00
2023-01-03T02:50:32.680Z,100.00
2023-01-03T02:51:44.602Z,100.00
2023-01-03T02:52:49.917Z,100.00
2023-01-03T02:53:52.616Z,100.00
2023-01-03T02:55:07.889Z,100.00
2023-01-03T02:56:14.495Z,100.00
2023-01-03T02:57:20.224Z,100.00
2023-01-03T02:58:26.008Z,100.00
2023-01-03T02:59:43.319Z,100.00
2023-01-03T03:00:48.925Z,100.00
2023-01-03T03:01:52.471Z,100.00
2023-01-03T03:02:59.341Z,100.00
2023-01-03T03:04:04.572Z,100.00
2023-01-03T03:05:10.418Z,100.00
2023-01-03T03:06:45.992Z,100.00
2023-01-03T03:07:48.517Z,100.00
2023-01-03T03:08:51.172Z,100.00
2023-01-03T03:09:55.993Z,100.00
2023-01-03T03:10:58.924Z,100.00
2023-01-03T03:12:03.017Z,100.00
2023-01-03T03:13:17.807Z,100.00
2023-01-03T03:14:29.043Z,100.00
2023-01-03T03:15:34.739Z,100.00
2023-01-03T03:17:57.920Z,100.00
2023-01-03T03:19:02.014Z,100.00
2023-01-03T03:20:14.095Z,100.00
2023-01-03T03:21:19.485Z,100.00
2023-01-03T03:22:34.297Z,100.00
2023-01-03T03:23:39.196Z,100.00
2023-01-03T03:24:41.972Z,100.00
2023-01-03T03:25:50.730Z,100.00
2023-01-03T03:26:55.665Z,100.00
2023-01-03T03:28:04.127Z,100.00
2023-01-03T03:29:10.607Z,100.00
2023-01-03T03:30:17.288Z,100.00
2023-01-03T03:31:29.180Z,100.00
2023-01-03T03:32:34.506Z,100.00
2023-01-03T03:33:43.189Z,100.00
2023-01-03T03:34:46.553Z,100.00
2023-01-03T03:35:58.517Z,100.00
2023-01-03T03:37:07.017Z,100.00
2023-01-03T03:38:12.279Z,100.00
2023-01-03T03:39:15.534Z,100.00
2023-01-03T03:40:21.003Z,100.00
2023-01-03T03:41:38.805Z,100.00
2023-01-03T03:42:44.499Z,100.00
2023-01-03T03:43:50.298Z,100.00
2023-01-03T03:45:01.029Z,100.00
2023-01-03T03:46:09.396Z,100.00
2023-01-03T03:47:41.374Z,100.00
2023-01-03T03:49:07.105Z,100.00
2023-01-03T03:50:22.572Z,100.00
2023-01-03T03:51:28.453Z,100.00
2023-01-03T03:52:33.187Z,100.00
2023-01-03T03:53:38.670Z,100.00
2023-01-03T03:54:44.567Z,100.00
2023-01-03T03:55:53.103Z,100.00
2023-01-03T03:56:58.981Z,100.00
2023-01-03T03:58:04.949Z,100.00
2023-01-03T03:59:10.391Z,100.00
2023-01-03T04:00:20.025Z,100.00
2023-01-03T04:01:25.114Z,100.00
2023-01-03T04:02:30.084Z,100.00
2023-01-03T04:03:34.105Z,100.00
2023-01-03T04:04:40.112Z,100.00
2023-01-03T04:05:51.743Z,100.00
2023-01-03T04:06:54.527Z,100.00
2023-01-03T04:07:57.273Z,100.00
2023-01-03T04:09:00.091Z,100.00
2023-01-03T04:10:05.235Z,100.00
2023-01-03T04:11:08.120Z,100.00
2023-01-03T04:12:10.301Z,100.00
2023-01-03T04:13:12.527Z,100.00
2023-01-03T04:14:15.804Z,100.00
2023-01-03T04:15:18.338Z,100.00
2023-01-03T04:16:21.013Z,100.00
2023-01-03T04:17:23.266Z,100.00
2023-01-03T04:18:26.773Z,100.00
2023-01-03T04:19:29.015Z,100.00
2023-01-03T04:20:31.115Z,100.00
2023-01-03T04:21:33.121Z,100.00
2023-01-03T04:22:36.122Z,100.00
2023-01-03T04:23:38.015Z,100.00
2023-01-03T04:24:39.900Z,100.00
2023-01-03T04:25:41.790Z,100.00
2023-01-03T04:26:44.055Z,100.00
2023-01-03T04:27:46.275Z,100.00
2023-01-03T04:28:48.159Z,100.00
2023-01-03T04:29:50.024Z,100.00
2023-01-03T04:30:52.201Z,100.00
2023-01-03T04:31:54.509Z,100.00
2023-01-03T04:32:57.081Z,100.00
2023-01-03T04:33:59.068Z,100.00
2023-01-03T04:35:01.029Z,100.00
2023-01-03T04:36:03.633Z,100.00
2023-01-03T04:37:05.785Z,100.00
2023-01-03T04:38:08.079Z,100.00
2023-01-03T04:39:09.956Z,100.00
2023-01-03T04:40:14.039Z,100.00
2023-01-03T04:41:16.818Z,100.00
2023-01-03T04:42:19.495Z,100.00
2023-01-03T04:43:21.392Z,100.00
2023-01-03T04:44:23.260Z,100.00
2023-01-03T04:45:25.201Z,100.00
2023-01-03T04:46:30.253Z,100.00
2023-01-03T04:47:32.169Z,100.00
2023-01-03T04:48:34.085Z,100.00
2023-01-03T04:49:36.070Z,100.00
2023-01-03T04:50:38.273Z,100.00
2023-01-03T04:51:40.133Z,100.00
2023-01-03T04:52:42.001Z,100.00
2023-01-03T04:53:43.869Z,100.00
2023-01-03T04:54:45.942Z,100.00
2023-01-03T04:55:49.874Z,100.00
2023-01-03T04:56:53.242Z,100.00
2023-01-03T04:57:55.162Z,100.00
2023-01-03T04:58:57.258Z,100.00
2023-01-03T04:59:59.149Z,100.00
2023-01-03T05:01:03.590Z,100.00
2023-01-03T05:02:05.819Z,100.00
2023-01-03T05:03:10.030Z,100.00
2023-01-03T05:04:12.000Z,100.00
2023-01-03T05:05:14.855Z,100.00
2023-01-03T05:06:18.033Z,100.00
2023-01-03T05:07:19.909Z,100.00
2023-01-03T05:08:21.781Z,100.00
2023-01-03T05:09:24.358Z,100.00
2023-01-03T05:10:26.565Z,100.00
2023-01-03T05:11:28.622Z,100.00
2023-01-03T05:12:32.458Z,100.00
2023-01-03T05:13:34.718Z,100.00
2023-01-03T05:14:36.609Z,100.00
2023-01-03T05:15:38.820Z,100.00
2023-01-03T05:16:41.899Z,100.00
2023-01-03T05:17:43.804Z,100.00
2023-01-03T05:18:45.681Z,100.00
2023-01-03T05:19:48.103Z,100.00
2023-01-03T05:20:50.285Z,100.00
2023-01-03T05:21:52.160Z,100.00
2023-01-03T05:22:54.047Z,100.00
2023-01-03T05:23:55.933Z,100.00
2023-01-03T05:24:57.827Z,100.00
2023-01-03T05:26:02.614Z,100.00
2023-01-03T05:27:05.581Z,100.00
2023-01-03T05:28:10.958Z,100.00
2023-01-03T05:29:14.414Z,100.00
2023-01-03T05:30:16.850Z,100.00
2023-01-03T05:31:19.588Z,100.00
2023-01-03T05:32:21.667Z,100.00
2023-01-03T05:33:24.621Z,100.00
2023-01-03T05:34:26.743Z,100.00
2023-01-03T05:35:28.743Z,100.00
2023-01-03T05:36:31.247Z,100.00
2023-01-03T05:37:33.140Z,100.00
2023-01-03T05:38:36.648Z,100.00
2023-01-03T05:39:39.410Z,100.00
2023-01-03T05:40:42.605Z,100.00
2023-01-03T05:41:44.543Z,100.00
2023-01-03T05:42:46.436Z,100.00
2023-01-03T05:43:48.466Z,100.00
2023-01-03T05:44:50.583Z,100.00
2023-01-03T05:45:54.346Z,100.00
2023-01-03T05:46:59.263Z,100.00
2023-01-03T05:48:01.278Z,100.00
2023-01-03T05:49:03.173Z,100.00
2023-01-03T05:50:07.328Z,100.00
2023-01-03T05:51:09.260Z,100.00
2023-01-03T05:52:11.295Z,100.00
2023-01-03T05:53:13.190Z,100.00
2023-01-03T05:54:17.537Z,100.00
2023-01-03T05:55:20.309Z,100.00
2023-01-03T05:56:23.251Z,100.00
2023-01-03T05:57:28.283Z,100.00
2023-01-03T05:58:29.229Z,100.00
2023-01-03T05:59:31.095Z,100.00
2023-01-03T06:00:34.132Z,100.00
2023-01-03T06:01:36.583Z,100.00
2023-01-03T06:02:39.728Z,100.00
2023-01-03T06:03:44.416Z,100.00
2023-01-03T06:04:46.538Z,100.00
2023-01-03T06:05:50.576Z,100.00
2023-01-03T06:06:52.666Z,100.00
2023-01-03T06:07:54.547Z,100.00
2023-01-03T06:08:56.552Z,100.00
2023-01-03T06:09:58.968Z,100.00
2023-01-03T06:11:06.987Z,100.00
2023-01-03T06:12:09.149Z,100.00
2023-01-03T06:13:11.613Z,100.00
2023-01-03T06:14:14.487Z,100.00
2023-01-03T06:15:16.548Z,100.00
2023-01-03T06:16:24.684Z,100.00
2023-01-03T06:17:25.146Z,100.00
2023-01-03T06:18:27.693Z,100.00
2023-01-03T06:19:30.075Z,100.00
2023-01-03T06:20:32.377Z,100.00
2023-01-03T06:21:35.261Z,100.00
2023-01-03T06:22:38.541Z,100.00
2023-01-03T06:23:40.927Z,100.00
2023-01-03T06:24:42.923Z,100.00
2023-01-03T06:25:44.820Z,100.00
2023-01-03T06:26:47.036Z,100.00
2023-01-03T06:27:49.125Z,100.00
2023-01-03T06:28:51.738Z,100.00
2023-01-03T06:29:53.794Z,100.00
2023-01-03T06:30:56.026Z,100.00
2023-01-03T06:32:01.104Z,100.00
2023-01-03T06:33:02.082Z,100.00
2023-01-03T06:34:04.892Z,100.00
2023-01-03T06:35:08.117Z,100.00
2023-01-03T06:36:13.487Z,100.00
2023-01-03T06:37:16.424Z,100.00
2023-01-03T06:38:18.431Z,100.00
2023-01-03T06:39:20.805Z,100.00
2023-01-03T06:40:23.437Z,100.00
2023-01-03T06:41:25.394Z,100.00
2023-01-03T06:42:27.365Z,100.00
2023-01-03T06:43:29.728Z,100.00
2023-01-03T06:44:31.701Z,100.00
2023-01-03T06:45:33.708Z,100.00
2023-01-03T06:46:36.241Z,100.00
2023-01-03T06:47:38.462Z,100.00
2023-01-03T06:48:40.739Z,100.00
2023-01-03T06:49:42.673Z,100.00
2023-01-03T06:50:45.289Z,100.00
2023-01-03T06:51:49.132Z,100.00
2023-01-03T06:52:51.057Z,100.00
2023-01-03T06:53:53.415Z,100.00
2023-01-03T06:54:55.479Z,100.00
2023-01-03T06:55:58.084Z,100.00
2023-01-03T06:57:00.646Z,100.00
2023-01-03T06:58:03.190Z,100.00
2023-01-03T06:59:05.177Z,100.00
2023-01-03T07:00:09.246Z,100.00
2023-01-03T07:01:13.963Z,100.00
2023-01-03T07:02:16.056Z,100.00
2023-01-03T07:03:18.681Z,100.00
2023-01-03T07:04:23.217Z,100.00
2023-01-03T07:05:25.191Z,100.00
2023-01-03T07:06:27.474Z,100.00
2023-01-03T07:07:29.384Z,100.00
2023-01-03T07:08:31.270Z,100.00
2023-01-03T07:09:33.355Z,100.00
2023-01-03T07:10:35.491Z,100.00
2023-01-03T07:11:39.003Z,100.00
2023-01-03T07:12:41.026Z,100.00
2023-01-03T07:13:42.993Z,100.00
2023-01-03T07:14:44.859Z,100.00
2023-01-03T07:15:46.796Z,100.00
2023-01-03T07:16:49.710Z,100.00
2023-01-03T07:17:51.593Z,100.00
2023-01-03T07:18:55.498Z,100.00
2023-01-03T07:19:57.825Z,100.00
2023-01-03T07:20:59.921Z,100.00
2023-01-03T07:22:03.969Z,100.00
2023-01-03T07:23:05.869Z,100.00
2023-01-03T07:24:10.239Z,100.00
2023-01-03T07:25:12.311Z,100.00
2023-01-03T07:26:14.975Z,100.00
2023-01-03T07:27:16.893Z,100.00
2023-01-03T07:28:18.964Z,100.00
2023-01-03T07:29:21.096Z,100.00
2023-01-03T07:30:23.825Z,100.00
2023-01-03T07:31:25.848Z,100.00
2023-01-03T07:32:27.915Z,100.00
2023-01-03T07:33:31.683Z,100.00
2023-01-03T07:34:33.610Z,100.00
2023-01-03T07:35:36.566Z,100.00
2023-01-03T07:36:38.672Z,100.00
2023-01-03T07:37:40.793Z,100.00
2023-01-03T07:38:44.482Z,100.00
2023-01-03T07:39:46.736Z,100.00
2023-01-03T07:40:48.710Z,100.00
2023-01-03T07:41:50.575Z,100.00
2023-01-03T07:42:52.987Z,100.00
2023-01-03T07:43:54.873Z,100.00
2023-01-03T07:44:56.804Z,100.00
2023-01-03T07:45:58.724Z,100.00
2023-01-03T07:47:01.199Z,100.00
2023-01-03T07:48:03.881Z,100.00
2023-01-03T07:49:11.254Z,100.00
2023-01-03T07:50:09.780Z,100.00
2023-01-03T07:51:13.481Z,100.00
2023-01-03T07:52:15.997Z,100.00
2023-01-03T07:53:18.625Z,100.00
2023-01-03T07:54:20.728Z,100.00
2023-01-03T07:55:22.608Z,100.00
2023-01-03T07:56:25.927Z,100.00
2023-01-03T07:57:28.157Z,100.00
2023-01-03T07:58:30.277Z,100.00
2023-01-03T07:59:32.166Z,100.00
2023-01-03T08:00:35.051Z,100.00
2023-01-03T08:01:37.301Z,100.00
2023-01-03T08:02:39.563Z,100.00
2023-01-03T08:03:42.703Z,100.00
2023-01-03T08:04:45.662Z,100.00
2023-01-03T08:05:48.404Z,100.00
2023-01-03T08:06:50.502Z,100.00
2023-01-03T08:07:53.649Z,100.00
2023-01-03T08:08:58.896Z,100.00
2023-01-03T08:09:59.484Z,100.00
2023-01-03T08:11:02.203Z,100.00
2023-01-03T08:12:05.173Z,100.00
2023-01-03T08:13:10.046Z,100.00
2023-01-03T08:14:12.067Z,100.00
2023-01-03T08:15:14.178Z,100.00
2023-01-03T08:16:18.550Z,100.00
2023-01-03T08:17:20.672Z,100.00
2023-01-03T08:18:28.131Z,100.00
2023-01-03T08:19:30.258Z,100.00
2023-01-03T08:20:32.505Z,100.00
2023-01-03T08:21:34.577Z,100.00
2023-01-03T08:22:36.695Z,100.00
2023-01-03T08:23:40.516Z,100.00
2023-01-03T08:24:42.534Z,100.00
2023-01-03T08:25:44.515Z,100.00
2023-01-03T08:26:47.093Z,100.00
2023-01-03T08:27:50.522Z,100.00
2023-01-03T08:28:52.571Z,100.00
2023-01-03T08:29:54.552Z,100.00
2023-01-03T08:30:58.821Z,100.00
2023-01-03T08:32:01.903Z,100.00
2023-01-03T08:33:06.859Z,100.00
2023-01-03T08:34:16.888Z,100.00
2023-01-03T08:35:16.595Z,100.00
2023-01-03T08:36:20.260Z,100.00
2023-01-03T08:37:22.268Z,100.00
2023-01-03T08:38:30.880Z,100.00
2023-01-03T08:39:36.575Z,100.00
2023-01-03T08:40:42.404Z,100.00
2023-01-03T08:41:47.881Z,100.00
2023-01-03T08:42:50.233Z,100.00
2023-01-03T08:43:53.391Z,100.00
2023-01-03T08:46:11.516Z,100.00
2023-01-03T08:47:15.994Z,100.00
2023-01-03T08:48:21.358Z,100.00
2023-01-03T08:49:25.461Z,100.00
2023-01-03T08:50:29.327Z,100.00
2023-01-03T08:51:32.004Z,100.00
2023-01-03T08:52:35.423Z,100.00
2023-01-03T08:53:39.211Z,100.00
2023-01-03T08:54:41.094Z,100.00
2023-01-03T08:55:43.769Z,100.00
2023-01-03T08:56:45.968Z,100.00
2023-01-03T08:57:47.869Z,100.00
2023-01-03T08:58:49.742Z,100.00
2023-01-03T08:59:51.604Z,100.00
2023-01-03T09:00:55.116Z,100.00
2023-01-03T09:02:00.784Z,100.00
2023-01-03T09:03:03.875Z,100.00
2023-01-03T09:04:06.839Z,100.00
2023-01-03T09:05:09.685Z,100.00
2023-01-03T09:06:12.263Z,100.00
2023-01-03T09:07:14.313Z,100.00
2023-01-03T09:08:17.080Z,100.00
2023-01-03T09:09:19.734Z,100.00
2023-01-03T09:10:22.717Z,100.00
2023-01-03T09:11:25.383Z,100.00
2023-01-03T09:12:27.536Z,100.00
2023-01-03T09:13:29.423Z,100.00
2023-01-03T09:14:31.541Z,100.00
2023-01-03T09:15:33.466Z,100.00
2023-01-03T09:16:35.737Z,100.00
2023-01-03T09:17:37.947Z,100.00
2023-01-03T09:18:40.970Z,100.00
2023-01-03T09:19:43.047Z,100.00
2023-01-03T09:20:49.121Z,100.00
2023-01-03T09:21:51.042Z,100.00
2023-01-03T09:22:53.050Z,100.00
2023-01-03T09:23:55.156Z,100.00
2023-01-03T09:24:57.136Z,100.00
2023-01-03T09:26:00.191Z,100.00
2023-01-03T09:27:04.721Z,100.00
2023-01-03T09:28:06.627Z,100.00
2023-01-03T09:29:08.530Z,100.00
2023-01-03T09:30:12.187Z,100.00
2023-01-03T09:31:14.134Z,100.00
2023-01-03T09:32:16.138Z,99.96
2023-01-03T09:33:18.321Z,99.96
2023-01-03T09:34:20.340Z,99.81
2023-01-03T09:35:22.330Z,99.68
2023-01-03T09:36:26.088Z,99.73
2023-01-03T09:37:27.967Z,99.59
2023-01-03T09:38:29.966Z,99.35
2023-01-03T09:39:33.179Z,99.22
2023-01-03T09:40:43.927Z,99.19
2023-01-03T09:41:46.523Z,99.21
2023-01-03T09:42:50.500Z,99.26
2023-01-03T09:43:59.049Z,99.03
2023-01-03T09:45:01.958Z,98.83
2023-01-03T09:46:04.708Z,98.70
2023-01-03T09:47:12.651Z,98.71
2023-01-03T09:48:33.391Z,98.47
2023-01-03T09:49:51.932Z,98.18
2023-01-03T09:51:52.173Z,98.00
2023-01-03T09:52:55.462Z,98.01
2023-01-03T09:53:58.045Z,98.13
2023-01-03T09:55:00.305Z,97.77
2023-01-03T09:56:03.295Z,97.69
2023-01-03T09:57:09.078Z,97.49
2023-01-03T09:58:14.139Z,97.33
2023-01-03T09:59:17.479Z,97.12
2023-01-03T10:00:29.522Z,97.27
2023-01-03T10:01:45.139Z,97.30
2023-01-03T10:04:43.279Z,96.49
2023-01-03T10:06:00.947Z,96.42
2023-01-03T10:07:09.696Z,96.13
2023-01-03T10:08:40.042Z,95.89
2023-01-03T10:10:07.901Z,96.00
2023-01-03T10:11:11.209Z,95.92
2023-01-03T10:12:49.261Z,95.95
2023-01-03T10:14:07.266Z,95.90
2023-01-03T10:15:19.061Z,95.71
2023-01-03T10:16:28.607Z,95.55
2023-01-03T10:17:44.357Z,95.50
2023-01-03T10:18:59.032Z,95.38
2023-01-03T10:20:08.296Z,95.04
2023-01-03T10:21:29.232Z,94.85
2023-01-03T10:22:32.620Z,94.94
2023-01-03T10:23:35.348Z,94.67
2023-01-03T10:26:12.727Z,94.77
2023-01-03T10:27:21.977Z,94.74
2023-01-03T10:28:27.452Z,94.74
2023-01-03T10:29:29.704Z,94.43
2023-01-03T10:30:38.441Z,94.06
2023-01-03T10:31:55.762Z,93.91
2023-01-03T10:33:13.566Z,94.24
2023-01-03T10:34:15.797Z,94.06
2023-01-03T10:35:23.342Z,93.94
2023-01-03T10:36:26.087Z,93.69
2023-01-03T10:37:29.142Z,93.45
2023-01-03T10:38:35.268Z,93.49
2023-01-03T10:39:35.676Z,93.36
2023-01-03T10:40:47.894Z,93.06
2023-01-03T10:41:50.091Z,92.97
2023-01-03T10:42:53.087Z,93.01
2023-01-03T10:44:01.999Z,92.80
2023-01-03T10:45:16.881Z,92.59
2023-01-03T10:46:22.204Z,92.47
2023-01-03T10:47:25.157Z,92.37
2023-01-03T10:49:17.113Z,92.27
2023-01-03T10:49:45.869Z,92.05
2023-01-03T10:50:48.558Z,91.94
2023-01-03T10:51:54.228Z,91.62
2023-01-03T10:54:37.554Z,91.65
2023-01-03T10:55:53.255Z,91.43
2023-01-03T10:56:56.820Z,91.61
2023-01-03T10:58:02.153Z,91.65
2023-01-03T10:59:25.826Z,91.76
2023-01-03T11:00:38.246Z,91.62
2023-01-03T11:02:01.046Z,91.47
2023-01-03T11:03:13.300Z,91.33
2023-01-03T11:04:16.764Z,91.43
2023-01-03T11:05:22.419Z,91.59
2023-01-03T11:06:26.439Z,91.76
2023-01-03T11:07:28.728Z,91.87
2023-01-03T11:08:40.428Z,91.95
2023-01-03T11:09:57.137Z,92.11
2023-01-03T11:11:00.387Z,92.11
2023-01-03T11:12:11.986Z,92.24
2023-01-03T11:13:38.987Z,92.20
2023-01-03T11:14:44.801Z,92.25
2023-01-03T11:15:50.502Z,92.45
2023-01-03T11:18:16.828Z,92.43
2023-01-03T11:19:20.159Z,92.38
2023-01-03T11:20:38.579Z,92.73
2023-01-03T11:21:44.254Z,92.59
2023-01-03T11:22:58.682Z,92.61
2023-01-03T11:24:16.879Z,92.62
2023-01-03T11:25:34.384Z,92.83
2023-01-03T11:26:40.841Z,92.77
2023-01-03T11:28:03.734Z,93.11
2023-01-03T11:29:24.172Z,93.11
2023-01-03T11:30:39.277Z,92.92
2023-01-03T11:32:20.664Z,93.13
2023-01-03T11:33:43.457Z,93.29
2023-01-03T11:35:28.575Z,93.20
2023-01-03T11:36:44.466Z,93.20
2023-01-03T11:38:06.818Z,93.88
2023-01-03T11:39:27.057Z,93.85
2023-01-03T11:40:47.076Z,94.11
2023-01-03T11:42:09.769Z,94.10
2023-01-03T11:43:27.726Z,94.05
2023-01-03T11:44:51.821Z,93.93
2023-01-03T11:46:20.920Z,93.84
2023-01-03T11:47:49.117Z,93.85
2023-01-03T11:49:28.255Z,93.97
2023-01-03T11:50:55.614Z,93.97
2023-01-03T11:52:07.610Z,94.06
2023-01-03T11:53:37.491Z,94.05
2023-01-03T11:55:17.489Z,94.28
2023-01-03T11:56:35.569Z,94.43
2023-01-03T11:58:04.440Z,94.69
2023-01-03T11:59:19.730Z,94.69
2023-01-03T12:00:31.793Z,94.82
2023-01-03T12:01:46.374Z,94.74
2023-01-03T12:02:55.180Z,94.70
2023-01-03T12:04:04.120Z,94.75
2023-01-03T12:05:39.914Z,94.67
2023-01-03T12:07:45.748Z,94.77
2023-01-03T12:08:18.179Z,94.75
2023-01-03T12:09:26.867Z,94.52
2023-01-03T12:10:32.755Z,94.60
2023-01-03T12:12:08.280Z,94.56
2023-01-03T12:13:27.106Z,94.62
2023-01-03T12:14:39.368Z,94.69
2023-01-03T12:15:47.809Z,94.82
2023-01-03T12:16:56.872Z,94.77
2023-01-03T12:18:26.541Z,94.79
2023-01-03T12:19:32.256Z,94.71
2023-01-03T12:20:38.285Z,94.64
2023-01-03T12:21:44.068Z,94.48
2023-01-03T12:24:14.819Z,94.56
2023-01-03T12:25:27.150Z,94.26
2023-01-03T12:26:31.701Z,94.30
2023-01-03T12:28:04.923Z,94.39
2023-01-03T12:29:13.976Z,94.20
2023-01-03T12:30:47.030Z,94.09
2023-01-03T12:31:55.815Z,93.89
2023-01-03T12:33:16.737Z,93.71
2023-01-03T12:34:31.703Z,93.81
2023-01-03T12:35:43.558Z,93.79
2023-01-03T12:37:07.699Z,93.90
2023-01-03T12:38:11.633Z,93.72
2023-01-03T12:39:33.464Z,93.67
2023-01-03T12:40:49.265Z,93.69
2023-01-03T12:42:24.227Z,93.63
2023-01-03T12:43:30.307Z,93.36
2023-01-03T12:44:41.591Z,93.32
2023-01-03T12:46:12.995Z,93.26
2023-01-03T12:47:28.078Z,93.09
2023-01-03T12:48:46.195Z,93.04
2023-01-03T12:50:00.478Z,93.11
2023-01-03T12:51:02.804Z,93.28
2023-01-03T12:52:11.603Z,93.01
2023-01-03T12:53:28.538Z,92.88
2023-01-03T12:54:43.292Z,92.94
2023-01-03T12:56:05.919Z,93.02
2023-01-03T12:57:31.733Z,92.91
2023-01-03T12:59:06.383Z,92.63
2023-01-03T13:00:24.516Z,92.66
2023-01-03T13:01:31.074Z,92.81
2023-01-03T13:02:52.361Z,92.63
2023-01-03T13:04:04.271Z,92.58
2023-01-03T13:05:28.522Z,92.47
2023-01-03T13:06:34.432Z,92.53
2023-01-03T13:07:41.028Z,92.61
2023-01-03T13:08:49.785Z,92.29
2023-01-03T13:11:20.057Z,91.69
2023-01-03T13:12:23.826Z,91.21
2023-01-03T13:13:26.329Z,91.04
2023-01-03T13:14:28.947Z,90.89
2023-01-03T13:15:37.342Z,90.87
2023-01-03T13:16:47.722Z,90.62
2023-01-03T13:17:50.162Z,90.42
2023-01-03T13:18:52.209Z,90.26
2023-01-03T13:20:27.208Z,90.01
2023-01-03T13:21:56.065Z,89.91
2023-01-03T13:23:18.836Z,89.96
2023-01-03T13:24:49.748Z,89.70
2023-01-03T13:26:07.683Z,89.47
2023-01-03T13:27:19.654Z,89.28
2023-01-03T13:28:25.491Z,88.95
2023-01-03T13:29:42.813Z,88.72
2023-01-03T13:30:45.711Z,88.74
2023-01-03T13:32:03.260Z,88.83
2023-01-03T13:33:15.038Z,88.76
2023-01-03T13:34:30.069Z,88.68
2023-01-03T13:35:35.876Z,88.68
2023-01-03T13:37:05.050Z,88.64
2023-01-03T13:38:25.171Z,88.74
2023-01-03T13:41:25.927Z,87.55
2023-01-03T13:42:34.722Z,87.24
2023-01-03T13:43:39.988Z,86.81
2023-01-03T13:44:41.655Z,86.53
2023-01-03T13:45:47.424Z,86.33
2023-01-03T13:46:50.749Z,85.85
2023-01-03T13:47:54.042Z,85.81
2023-01-03T13:49:08.631Z,86.16
2023-01-03T13:50:30.340Z,86.27
2023-01-03T13:51:42.397Z,85.86
2023-01-03T13:53:11.194Z,85.51
2023-01-03T13:54:16.884Z,85.48
2023-01-03T13:55:50.647Z,85.34
2023-01-03T13:56:53.044Z,84.96
2023-01-03T13:57:55.415Z,84.56
2023-01-03T13:59:04.161Z,84.27
2023-01-03T14:00:13.867Z,84.20
2023-01-03T14:02:35.868Z,84.12
2023-01-03T14:04:03.512Z,84.08
2023-01-03T14:05:33.141Z,84.31
2023-01-03T14:06:42.125Z,84.71
2023-01-03T14:08:09.153Z,84.30
2023-01-03T14:09:20.629Z,83.81
2023-01-03T14:10:43.333Z,83.70
2023-01-03T14:11:55.213Z,83.70
2023-01-03T14:13:27.190Z,83.79
2023-01-03T14:14:32.401Z,83.57
2023-01-03T14:15:34.465Z,83.83
2023-01-03T14:16:43.377Z,83.94
2023-01-03T14:19:20.019Z,83.92
2023-01-03T14:20:32.427Z,83.89
2023-01-03T14:23:11.636Z,83.56
2023-01-03T14:24:08.001Z,83.26
2023-01-03T14:25:31.947Z,83.16
2023-01-03T14:26:35.356Z,82.96
2023-01-03T14:27:39.570Z,82.77
2023-01-03T14:28:48.020Z,83.01